Alsace — PB4786 — position and weather

sailwx.info

Track history (hours):
 
Tides and Currents Weather Stations Pressure Air Temp Water Temp Dewpoint Dewpoint Depression Visibility Wind Speed Wind Dir Waves Ship Positions

Alsace

Last reported at 2014-Nov-22 02:33 UTC. Time now 2014-Nov-24 00:07 UTC.
Position N 48°41' E 007°55'.

Length 178 m.

Type: Ship. MMSI: 244660556.

Date/timePositionNaut miles runAvg speedWind from/ knotsBaromVisibWave heightAir tempDewpointWater temp
2014-Nov-22 02:33N 48°41' E 007°55'4 3.7
2014-Nov-22 01:33N 48°44' E 007°58'5 5.1
2014-Nov-22 00:32N 48°47' E 008°04'4 3.7
2014-Nov-21 23:33N 48°50' E 008°07'5 4.6
2014-Nov-21 22:33N 48°55' E 008°09'4 4.4
2014-Nov-21 21:33N 48°58' E 008°14'4 4.5
2014-Nov-21 20:33N 49°02' E 008°18'5 4.9
2014-Nov-21 19:33N 49°06' E 008°22'5 4.7
2014-Nov-21 18:33N 49°11' E 008°22'5 4.7
2014-Nov-21 17:33N 49°15' E 008°25'4 4.2
2014-Nov-21 16:32N 49°18' E 008°29'4 3.8
2014-Nov-21 15:33N 49°22' E 008°30'110 4.4
2014-Nov-20 14:21N 50°55' E 006°59'9 5.0
2014-Nov-20 12:30N 51°04' E 006°54'4 4.1
2014-Nov-20 11:33N 51°07' E 006°52'3 3.2
2014-Nov-20 10:33N 51°09' E 006°48'4 4.4
2014-Nov-20 09:33N 51°13' E 006°44'3 2.8
2014-Nov-20 08:33N 51°16' E 006°43'5 4.7
2014-Nov-20 07:33N 51°20' E 006°42'9 3.9
2014-Nov-20 05:09N 51°30' E 006°42'21 4.4
2014-Nov-20 00:22N 51°46' E 006°20'6 6.2
2014-Nov-19 23:27N 51°50' E 006°13'13 5.7
2014-Nov-19 21:08N 51°51' E 005°52'2 3.0
2014-Nov-19 20:33N 51°52' E 005°50'5 5.0
2014-Nov-19 19:33N 51°54' E 005°42'8 7.6
2014-Nov-19 18:33N 51°53' E 005°30'7 7.1
2014-Nov-19 17:33N 51°48' E 005°22'7 6.7
2014-Nov-19 16:33N 51°49' E 005°11'7 7.3
2014-Nov-19 15:33N 51°49' E 004°59'8 7.5
2014-Nov-19 14:33N 51°48' E 004°47'8 8.2
2014-Nov-19 13:33N 51°43' E 004°37'2 1.3
2014-Nov-19 12:14N 51°41' E 004°36'2 2.5
2014-Nov-19 11:33N 51°43' E 004°37'8 7.9
2014-Nov-19 10:34N 51°50' E 004°40'7 7.4
2014-Nov-19 09:33N 51°55' E 004°31'3 3.4
2014-Nov-19 08:33N 51°53' E 004°26'0 0.1
2014-Nov-19 07:33N 51°53' E 004°26'0 0.1
2014-Nov-19 06:33N 51°53' E 004°26'0 0.0
2014-Nov-19 05:33N 51°53' E 004°26'0 0.0
2014-Nov-19 04:33N 51°53' E 004°26'1 1.4
2014-Nov-19 03:33N 51°53' E 004°24'0 0.0
2014-Nov-19 02:33N 51°53' E 004°24'0 0.0
2014-Nov-19 01:33N 51°53' E 004°24'0 0.0
2014-Nov-19 00:33N 51°53' E 004°24'2 1.7
2014-Nov-18 23:33N 51°54' E 004°22'5 4.8
2014-Nov-18 22:33N 51°53' E 004°14'1 0.6
2014-Nov-18 21:33N 51°53' E 004°15'7 3.5
2014-Nov-18 19:33N 51°54' E 004°26'0 0.1
2014-Nov-18 18:34N 51°54' E 004°26'1 1.3
2014-Nov-18 17:33N 51°53' E 004°24'0 0.0
2014-Nov-18 16:33N 51°53' E 004°24'1 0.6
2014-Nov-18 15:33N 51°53' E 004°24'0 0.3
2014-Nov-18 14:33N 51°53' E 004°24'0 0.0
2014-Nov-18 13:33N 51°53' E 004°24'0 0.0
2014-Nov-18 12:33N 51°53' E 004°24'0 0.0
2014-Nov-18 11:33N 51°53' E 004°24'0 0.0
2014-Nov-18 10:33N 51°53' E 004°24'1 0.7
2014-Nov-18 09:33N 51°53' E 004°24'0 0.3
2014-Nov-18 08:33N 51°54' E 004°24'3 2.9
2014-Nov-18 07:33N 51°53' E 004°19'1 1.0
2014-Nov-18 06:33N 51°52' E 004°20'7 6.7
2014-Nov-18 05:33N 51°55' E 004°10'6 5.5
2014-Nov-18 04:33N 51°58' E 004°03'0 0.0
2014-Nov-18 03:32N 51°58' E 004°03'0 0.1
2014-Nov-18 02:33N 51°58' E 004°03'0 0.0
2014-Nov-18 01:33N 51°58' E 004°03'1 1.0
2014-Nov-18 00:33N 51°57' E 004°02'0 0.2
2014-Nov-17 23:33N 51°58' E 004°02'2 1.5
2014-Nov-17 22:33N 51°57' E 004°05'0 0.0
2014-Nov-17 21:33N 51°57' E 004°05'0 0.0
2014-Nov-17 20:33N 51°57' E 004°05'0 0.2
2014-Nov-17 19:33N 51°57' E 004°04'5 4.6
2014-Nov-17 18:33N 51°55' E 004°11'9 8.6
2014-Nov-17 17:34N 51°51' E 004°23'9 9.3
2014-Nov-17 16:34N 51°48' E 004°37'1 1.5
2014-Nov-17 15:34N 51°49' E 004°39'0 0.0
2014-Nov-17 14:34N 51°49' E 004°39'0 0.0
2014-Nov-17 13:34N 51°49' E 004°39'0 0.0
2014-Nov-17 12:34N 51°49' E 004°39'0 0.0
2014-Nov-17 11:33N 51°49' E 004°39'1 0.8
2014-Nov-17 10:33N 51°49' E 004°40'10 9.7
2014-Nov-17 09:32N 51°50' E 004°56'10 9.9
2014-Nov-17 08:34N 51°49' E 005°12'9 8.5
2014-Nov-17 07:34N 51°51' E 005°25'10 9.7
2014-Nov-17 06:30N 51°54' E 005°41'6 0.7
2014-Nov-16 22:05N 51°52' E 005°50'1 0.9
2014-Nov-16 21:32N 51°51' E 005°50'19 8.1
2014-Nov-16 19:14N 51°47' E 006°20'28 6.9
2014-Nov-16 15:09N 51°21' E 006°39'5 8.3
2014-Nov-16 14:33N 51°17' E 006°42'6 6.3
2014-Nov-16 13:34N 51°11' E 006°45'17 7.1
2014-Nov-16 11:13N 50°56' E 006°58'111 7.4
2014-Nov-15 20:13N 49°22' E 008°30'6 7.8
2014-Nov-15 19:28N 49°17' E 008°28'910.0
2014-Nov-15 18:33N 49°09' E 008°22'1110.6
2014-Nov-15 17:34N 48°59' E 008°16'15 7.1
2014-Nov-15 15:27N 48°47' E 008°02'8 6.0
2014-Nov-15 14:12N 48°41' E 007°55'64 2.8
2014-Nov-14 15:20N 47°39' E 007°32'4 5.6
2014-Nov-14 14:33N 47°36' E 007°35'1 0.3
2014-Nov-14 12:32N 47°35' E 007°35'0 0.0
2014-Nov-14 11:30N 47°35' E 007°35'0 0.0
2014-Nov-14 10:30N 47°35' E 007°35'0 0.0
2014-Nov-14 08:18N 47°35' E 007°35'0 0.0
2014-Nov-14 07:28N 47°35' E 007°35'0 0.3
2014-Nov-14 06:33N 47°35' E 007°36'0 0.3
2014-Nov-14 05:33N 47°35' E 007°35'0 0.0
2014-Nov-14 04:27N 47°35' E 007°35'0 0.0
2014-Nov-14 03:33N 47°35' E 007°35'0 0.0
2014-Nov-14 02:28N 47°35' E 007°35'0 0.0
2014-Nov-14 01:31N 47°35' E 007°35'5 5.0
2014-Nov-14 00:33N 47°39' E 007°32'65 2.7
2014-Nov-13 00:11N 48°42' E 007°56'5 5.5
2014-Nov-12 23:21N 48°46' E 008°00'6 6.7
2014-Nov-12 22:27N 48°50' E 008°07'2 2.6
2014-Nov-12 21:31N 48°52' E 008°07'3 3.5
2014-Nov-12 20:33N 48°55' E 008°10'3 3.4
2014-Nov-12 19:33N 48°58' E 008°13'4 3.6
2014-Nov-12 18:33N 49°00' E 008°17'4 4.0
2014-Nov-12 17:33N 49°04' E 008°19'4 4.0
2014-Nov-12 16:33N 49°08' E 008°22'4 3.9
2014-Nov-12 15:33N 49°11' E 008°23'4 4.0
2014-Nov-12 14:33N 49°15' E 008°25'4 3.6
2014-Nov-12 13:25N 49°19' E 008°28'  
Track history (hours):
 
Tides and Currents Weather Stations Pressure Air Temp Water Temp Dewpoint Dewpoint Depression Visibility Wind Speed Wind Dir Waves Ship Positions

Alsace

Last reported at 2014-Nov-22 02:33 UTC. Time now 2014-Nov-24 00:07 UTC.
Position N 48°41' E 007°55'.

Length 178 m.

Type: Ship. MMSI: 244660556.

Date/timePositionNaut miles runAvg speedWind from/ knotsBaromVisibWave heightAir tempDewpointWater temp
2014-Nov-22 02:33N 48°41' E 007°55'4 3.7
2014-Nov-22 01:33N 48°44' E 007°58'5 5.1
2014-Nov-22 00:32N 48°47' E 008°04'4 3.7
2014-Nov-21 23:33N 48°50' E 008°07'5 4.6
2014-Nov-21 22:33N 48°55' E 008°09'4 4.4
2014-Nov-21 21:33N 48°58' E 008°14'4 4.5
2014-Nov-21 20:33N 49°02' E 008°18'5 4.9
2014-Nov-21 19:33N 49°06' E 008°22'5 4.7
2014-Nov-21 18:33N 49°11' E 008°22'5 4.7
2014-Nov-21 17:33N 49°15' E 008°25'4 4.2
2014-Nov-21 16:32N 49°18' E 008°29'4 3.8
2014-Nov-21 15:33N 49°22' E 008°30'110 4.4
2014-Nov-20 14:21N 50°55' E 006°59'9 5.0
2014-Nov-20 12:30N 51°04' E 006°54'4 4.1
2014-Nov-20 11:33N 51°07' E 006°52'3 3.2
2014-Nov-20 10:33N 51°09' E 006°48'4 4.4
2014-Nov-20 09:33N 51°13' E 006°44'3 2.8
2014-Nov-20 08:33N 51°16' E 006°43'5 4.7
2014-Nov-20 07:33N 51°20' E 006°42'9 3.9
2014-Nov-20 05:09N 51°30' E 006°42'21 4.4
2014-Nov-20 00:22N 51°46' E 006°20'6 6.2
2014-Nov-19 23:27N 51°50' E 006°13'13 5.7
2014-Nov-19 21:08N 51°51' E 005°52'2 3.0
2014-Nov-19 20:33N 51°52' E 005°50'5 5.0
2014-Nov-19 19:33N 51°54' E 005°42'8 7.6
2014-Nov-19 18:33N 51°53' E 005°30'7 7.1
2014-Nov-19 17:33N 51°48' E 005°22'7 6.7
2014-Nov-19 16:33N 51°49' E 005°11'7 7.3
2014-Nov-19 15:33N 51°49' E 004°59'8 7.5
2014-Nov-19 14:33N 51°48' E 004°47'8 8.2
2014-Nov-19 13:33N 51°43' E 004°37'2 1.3
2014-Nov-19 12:14N 51°41' E 004°36'2 2.5
2014-Nov-19 11:33N 51°43' E 004°37'8 7.9
2014-Nov-19 10:34N 51°50' E 004°40'7 7.4
2014-Nov-19 09:33N 51°55' E 004°31'3 3.4
2014-Nov-19 08:33N 51°53' E 004°26'0 0.1
2014-Nov-19 07:33N 51°53' E 004°26'0 0.1
2014-Nov-19 06:33N 51°53' E 004°26'0 0.0
2014-Nov-19 05:33N 51°53' E 004°26'0 0.0
2014-Nov-19 04:33N 51°53' E 004°26'1 1.4
2014-Nov-19 03:33N 51°53' E 004°24'0 0.0
2014-Nov-19 02:33N 51°53' E 004°24'0 0.0
2014-Nov-19 01:33N 51°53' E 004°24'0 0.0
2014-Nov-19 00:33N 51°53' E 004°24'2 1.7
2014-Nov-18 23:33N 51°54' E 004°22'5 4.8
2014-Nov-18 22:33N 51°53' E 004°14'1 0.6
2014-Nov-18 21:33N 51°53' E 004°15'7 3.5
2014-Nov-18 19:33N 51°54' E 004°26'0 0.1
2014-Nov-18 18:34N 51°54' E 004°26'1 1.3
2014-Nov-18 17:33N 51°53' E 004°24'0 0.0
2014-Nov-18 16:33N 51°53' E 004°24'1 0.6
2014-Nov-18 15:33N 51°53' E 004°24'0 0.3
2014-Nov-18 14:33N 51°53' E 004°24'0 0.0
2014-Nov-18 13:33N 51°53' E 004°24'0 0.0
2014-Nov-18 12:33N 51°53' E 004°24'0 0.0
2014-Nov-18 11:33N 51°53' E 004°24'0 0.0
2014-Nov-18 10:33N 51°53' E 004°24'1 0.7
2014-Nov-18 09:33N 51°53' E 004°24'0 0.3
2014-Nov-18 08:33N 51°54' E 004°24'3 2.9
2014-Nov-18 07:33N 51°53' E 004°19'1 1.0
2014-Nov-18 06:33N 51°52' E 004°20'7 6.7
2014-Nov-18 05:33N 51°55' E 004°10'6 5.5
2014-Nov-18 04:33N 51°58' E 004°03'0 0.0
2014-Nov-18 03:32N 51°58' E 004°03'0 0.1
2014-Nov-18 02:33N 51°58' E 004°03'0 0.0
2014-Nov-18 01:33N 51°58' E 004°03'1 1.0
2014-Nov-18 00:33N 51°57' E 004°02'0 0.2
2014-Nov-17 23:33N 51°58' E 004°02'2 1.5
2014-Nov-17 22:33N 51°57' E 004°05'0 0.0
2014-Nov-17 21:33N 51°57' E 004°05'0 0.0
2014-Nov-17 20:33N 51°57' E 004°05'0 0.2
2014-Nov-17 19:33N 51°57' E 004°04'5 4.6
2014-Nov-17 18:33N 51°55' E 004°11'9 8.6
2014-Nov-17 17:34N 51°51' E 004°23'9 9.3
2014-Nov-17 16:34N 51°48' E 004°37'1 1.5
2014-Nov-17 15:34N 51°49' E 004°39'0 0.0
2014-Nov-17 14:34N 51°49' E 004°39'0 0.0
2014-Nov-17 13:34N 51°49' E 004°39'0 0.0
2014-Nov-17 12:34N 51°49' E 004°39'0 0.0
2014-Nov-17 11:33N 51°49' E 004°39'1 0.8
2014-Nov-17 10:33N 51°49' E 004°40'10 9.7
2014-Nov-17 09:32N 51°50' E 004°56'10 9.9
2014-Nov-17 08:34N 51°49' E 005°12'9 8.5
2014-Nov-17 07:34N 51°51' E 005°25'10 9.7
2014-Nov-17 06:30N 51°54' E 005°41'6 0.7
2014-Nov-16 22:05N 51°52' E 005°50'1 0.9
2014-Nov-16 21:32N 51°51' E 005°50'19 8.1
2014-Nov-16 19:14N 51°47' E 006°20'28 6.9
2014-Nov-16 15:09N 51°21' E 006°39'5 8.3
2014-Nov-16 14:33N 51°17' E 006°42'6 6.3
2014-Nov-16 13:34N 51°11' E 006°45'17 7.1
2014-Nov-16 11:13N 50°56' E 006°58'111 7.4
2014-Nov-15 20:13N 49°22' E 008°30'6 7.8
2014-Nov-15 19:28N 49°17' E 008°28'910.0
2014-Nov-15 18:33N 49°09' E 008°22'1110.6
2014-Nov-15 17:34N 48°59' E 008°16'15 7.1
2014-Nov-15 15:27N 48°47' E 008°02'8 6.0
2014-Nov-15 14:12N 48°41' E 007°55'64 2.8
2014-Nov-14 15:20N 47°39' E 007°32'4 5.6
2014-Nov-14 14:33N 47°36' E 007°35'1 0.3
2014-Nov-14 12:32N 47°35' E 007°35'0 0.0
2014-Nov-14 11:30N 47°35' E 007°35'0 0.0
2014-Nov-14 10:30N 47°35' E 007°35'0 0.0
2014-Nov-14 08:18N 47°35' E 007°35'0 0.0
2014-Nov-14 07:28N 47°35' E 007°35'0 0.3
2014-Nov-14 06:33N 47°35' E 007°36'0 0.3
2014-Nov-14 05:33N 47°35' E 007°35'0 0.0
2014-Nov-14 04:27N 47°35' E 007°35'0 0.0
2014-Nov-14 03:33N 47°35' E 007°35'0 0.0
2014-Nov-14 02:28N 47°35' E 007°35'0 0.0
2014-Nov-14 01:31N 47°35' E 007°35'5 5.0
2014-Nov-14 00:33N 47°39' E 007°32'65 2.7
2014-Nov-13 00:11N 48°42' E 007°56'5 5.5
2014-Nov-12 23:21N 48°46' E 008°00'6 6.7
2014-Nov-12 22:27N 48°50' E 008°07'2 2.6
2014-Nov-12 21:31N 48°52' E 008°07'3 3.5
2014-Nov-12 20:33N 48°55' E 008°10'3 3.4
2014-Nov-12 19:33N 48°58' E 008°13'4 3.6
2014-Nov-12 18:33N 49°00' E 008°17'4 4.0
2014-Nov-12 17:33N 49°04' E 008°19'4 4.0
2014-Nov-12 16:33N 49°08' E 008°22'4 3.9
2014-Nov-12 15:33N 49°11' E 008°23'4 4.0
2014-Nov-12 14:33N 49°15' E 008°25'4 3.6
2014-Nov-12 13:25N 49°19' E 008°28'  

Dump ship's entire track history